Time;durP1;ratioP1;P1;durP2;ratioP2;P2;SDS_P1;SDS_P2;PMS_P1;PMS_P2;Temp;Humidity;BMP_temperature;BMP_pressure;BME280_temperature;BME280_humidity;BME280_pressure;Samples;Min_cycle;Max_cycle;Signal;HPM_P1;HPM_P2
2023/09/13 00:00:10;;;;;;;0.70;0.70;;;22.90;66.10;;;;;;6304181;22;20188;-84
2023/09/13 00:02:40;;;;;;;2.53;0.40;;;22.90;66.80;;;;;;6304642;22;20160;-83
2023/09/13 00:05:10;;;;;;;1.20;0.40;;;22.90;66.70;;;;;;6304866;22;20192;-85
2023/09/13 00:07:39;;;;;;;0.32;0.30;;;22.80;67.00;;;;;;6305167;22;20169;-84
2023/09/13 00:10:08;;;;;;;0.30;0.30;;;22.80;67.10;;;;;;6305130;22;20601;-83
2023/09/13 00:12:36;;;;;;;1.23;1.02;;;22.80;66.90;;;;;;6304258;22;20568;-84
2023/09/13 00:15:07;;;;;;;0.30;0.30;;;22.80;66.60;;;;;;6304278;22;20602;-84
2023/09/13 00:17:36;;;;;;;0.28;0.28;;;22.80;66.80;;;;;;6305666;22;20244;-84
2023/09/13 00:20:07;;;;;;;0.40;0.40;;;22.80;66.80;;;;;;6304287;22;20230;-83
2023/09/13 00:22:36;;;;;;;0.60;0.40;;;22.80;66.80;;;;;;6306025;22;20245;-84
2023/09/13 00:25:05;;;;;;;0.57;0.40;;;22.80;67.00;;;;;;6304395;22;20204;-84
2023/09/13 00:27:33;;;;;;;1.08;0.43;;;22.70;67.30;;;;;;6306012;22;20241;-85
2023/09/13 00:30:02;;;;;;;0.25;0.25;;;22.70;67.00;;;;;;6303860;22;20161;-84
2023/09/13 00:32:32;;;;;;;0.40;0.40;;;22.70;67.00;;;;;;6305101;22;20174;-84
2023/09/13 00:35:01;;;;;;;0.47;0.30;;;22.70;68.00;;;;;;6304137;22;20311;-83
2023/09/13 00:37:29;;;;;;;0.32;0.25;;;22.70;67.50;;;;;;6306177;22;20169;-84
2023/09/13 00:39:58;;;;;;;1.25;1.15;;;22.70;67.60;;;;;;6305367;22;20165;-84
2023/09/13 00:42:28;;;;;;;0.77;0.40;;;22.70;67.70;;;;;;6305000;22;20199;-84
2023/09/13 00:44:57;;;;;;;0.30;0.30;;;22.70;68.20;;;;;;6304322;22;20246;-84
2023/09/13 00:47:26;;;;;;;1.70;1.08;;;22.60;68.00;;;;;;6305638;22;20208;-84
2023/09/13 00:49:56;;;;;;;0.20;0.20;;;22.60;67.70;;;;;;6304761;22;20173;-84
2023/09/13 00:52:25;;;;;;;0.40;0.40;;;22.60;68.20;;;;;;6304916;22;20216;-84
2023/09/13 00:54:54;;;;;;;0.32;0.30;;;22.60;68.70;;;;;;6304903;22;20169;-84
2023/09/13 00:57:24;;;;;;;0.30;0.30;;;22.60;69.40;;;;;;6305286;22;20238;-84
2023/09/13 00:59:53;;;;;;;0.57;0.45;;;22.50;68.80;;;;;;6304961;22;20233;-84
2023/09/13 01:02:22;;;;;;;0.40;0.40;;;22.60;68.50;;;;;;6304663;22;20586;-84
2023/09/13 01:04:51;;;;;;;0.20;0.20;;;22.50;69.00;;;;;;6304828;22;20195;-84
2023/09/13 01:07:21;;;;;;;0.30;0.30;;;22.50;70.00;;;;;;6304675;22;20486;-85
2023/09/13 01:09:50;;;;;;;1.30;0.93;;;22.50;70.10;;;;;;6305502;22;20154;-84
2023/09/13 01:12:21;;;;;;;0.40;0.40;;;22.40;69.80;;;;;;6304864;22;20192;-84
2023/09/13 01:14:50;;;;;;;0.93;0.60;;;22.40;70.20;;;;;;6305792;22;20156;-84
2023/09/13 01:17:26;;;;;;;0.30;0.30;;;22.40;70.70;;;;;;6303362;22;20168;-84
2023/09/13 01:20:02;;;;;;;0.63;0.60;;;22.30;70.60;;;;;;6304764;22;20156;-85
2023/09/13 01:23:07;;;;;;;0.20;0.20;;;22.30;71.00;;;;;;6305558;22;20172;-84
2023/09/13 01:25:50;;;;;;;0.30;0.30;;;22.30;70.60;;;;;;6308663;22;20181;-85
2023/09/13 01:28:40;;;;;;;0.30;0.30;;;22.20;70.50;;;;;;6328179;22;20164;-84
2023/09/13 01:31:09;;;;;;;1.02;1.02;;;22.20;70.50;;;;;;6327972;22;20165;-84
2023/09/13 01:33:38;;;;;;;0.95;0.75;;;22.20;70.80;;;;;;6327655;22;20160;-83
2023/09/13 01:36:07;;;;;;;0.98;0.95;;;22.20;70.50;;;;;;6327806;22;20212;-85
2023/09/13 01:38:36;;;;;;;0.40;0.40;;;22.10;70.80;;;;;;6323825;22;20166;-84
2023/09/13 01:41:11;;;;;;;0.20;0.20;;;22.10;70.80;;;;;;6307730;22;20226;-84
2023/09/13 01:43:42;;;;;;;0.20;0.20;;;22.10;71.00;;;;;;6307502;22;20186;-84
2023/09/13 01:46:13;;;;;;;0.40;0.40;;;22.10;70.60;;;;;;6307952;22;20638;-85
2023/09/13 01:48:42;;;;;;;0.47;0.47;;;22.00;70.70;;;;;;6307786;22;20488;-84
2023/09/13 01:51:11;;;;;;;0.43;0.43;;;22.00;70.90;;;;;;6306844;22;20933;-84
2023/09/13 01:53:46;;;;;;;1.30;1.20;;;22.00;71.80;;;;;;6305897;22;20165;-84
2023/09/13 01:56:16;;;;;;;0.40;0.40;;;22.00;71.10;;;;;;6304294;22;20649;-84
2023/09/13 01:58:47;;;;;;;0.82;0.52;;;22.00;70.90;;;;;;6306078;22;20165;-83
2023/09/13 02:01:15;;;;;;;0.38;0.30;;;22.00;70.80;;;;;;6305700;22;20185;-81
2023/09/13 02:03:44;;;;;;;1.45;0.63;;;22.00;70.90;;;;;;6304926;22;20195;-83
2023/09/13 02:06:13;;;;;;;0.30;0.30;;;22.00;70.90;;;;;;6304675;22;20192;-83
2023/09/13 02:08:43;;;;;;;0.73;0.73;;;22.00;71.10;;;;;;6304381;22;20607;-83
2023/09/13 02:11:12;;;;;;;0.20;0.20;;;21.90;70.90;;;;;;6316535;22;20220;-84
2023/09/13 02:13:40;;;;;;;0.40;0.40;;;22.00;71.10;;;;;;6335238;22;20172;-83
2023/09/13 02:16:11;;;;;;;0.60;0.60;;;21.90;71.50;;;;;;6335392;22;20625;-84
2023/09/13 02:18:40;;;;;;;0.40;0.40;;;21.90;71.80;;;;;;6336209;22;20496;-85
2023/09/13 02:21:09;;;;;;;0.47;0.30;;;21.90;71.90;;;;;;6334746;22;20173;-82
2023/09/13 02:23:41;;;;;;;1.02;0.77;;;21.80;72.20;;;;;;6334862;22;20679;-83
2023/09/13 02:26:19;;;;;;;0.40;0.40;;;21.90;72.00;;;;;;6334237;22;20191;-83
2023/09/13 02:28:48;;;;;;;1.40;0.28;;;21.80;72.20;;;;;;6336424;22;20168;-83
2023/09/13 02:31:23;;;;;;;0.30;0.30;;;21.80;72.10;;;;;;6336919;22;20625;-83
2023/09/13 02:33:52;;;;;;;0.40;0.40;;;21.80;71.90;;;;;;6338007;22;20202;-83
2023/09/13 02:36:22;;;;;;;0.67;0.63;;;21.80;72.20;;;;;;6336614;22;20538;-83
2023/09/13 02:38:51;;;;;;;0.40;0.40;;;21.70;72.40;;;;;;6338310;22;20225;-83
2023/09/13 02:41:19;;;;;;;1.55;0.70;;;21.70;72.50;;;;;;6336706;22;20204;-84
2023/09/13 02:43:48;;;;;;;0.60;0.60;;;21.70;72.70;;;;;;6338048;22;20168;-84
2023/09/13 02:46:16;;;;;;;0.90;0.90;;;21.60;73.00;;;;;;6337536;22;20200;-83
2023/09/13 02:48:46;;;;;;;0.43;0.43;;;21.60;72.80;;;;;;6337401;22;20160;-84
2023/09/13 02:51:16;;;;;;;0.50;0.50;;;21.60;73.20;;;;;;6337929;22;20172;-83
2023/09/13 02:53:44;;;;;;;0.20;0.20;;;21.60;73.40;;;;;;6338017;22;20487;-83
2023/09/13 02:56:13;;;;;;;0.50;0.40;;;21.60;73.30;;;;;;6336801;22;20243;-84
2023/09/13 02:58:42;;;;;;;0.22;0.22;;;21.50;73.90;;;;;;6337430;22;20187;-84
2023/09/13 03:01:10;;;;;;;0.80;0.70;;;21.50;73.90;;;;;;6336172;22;20511;-85
2023/09/13 03:03:39;;;;;;;1.38;0.50;;;21.50;74.00;;;;;;6336344;22;20161;-84
2023/09/13 03:06:13;;;;;;;0.40;0.40;;;21.40;73.80;;;;;;6336325;22;20180;-84
2023/09/13 03:08:42;;;;;;;0.30;0.30;;;21.40;74.10;;;;;;6338701;22;20161;-84
2023/09/13 03:11:12;;;;;;;2.40;1.02;;;21.40;74.00;;;;;;6310161;22;20188;-83
2023/09/13 03:13:40;;;;;;;0.20;0.20;;;21.30;73.90;;;;;;6337660;22;20168;-83
2023/09/13 03:16:14;;;;;;;0.30;0.30;;;21.30;73.90;;;;;;6336573;22;20168;-84
2023/09/13 03:18:43;;;;;;;1.07;0.80;;;21.30;73.70;;;;;;6338185;22;20171;-83
2023/09/13 03:21:14;;;;;;;0.30;0.30;;;21.30;73.90;;;;;;6336387;22;20687;-84
2023/09/13 03:23:44;;;;;;;0.63;0.47;;;21.30;74.20;;;;;;6336007;22;20160;-83
2023/09/13 03:26:15;;;;;;;0.73;0.53;;;21.30;74.20;;;;;;6336396;22;20514;-84
2023/09/13 03:28:45;;;;;;;0.53;0.53;;;21.30;74.70;;;;;;6336186;22;20171;-84
2023/09/13 03:31:15;;;;;;;0.40;0.40;;;21.20;74.30;;;;;;6335013;22;20164;-84
2023/09/13 03:33:44;;;;;;;0.50;0.50;;;21.20;74.40;;;;;;6336679;22;20245;-84
2023/09/13 03:36:16;;;;;;;0.50;0.40;;;21.20;74.10;;;;;;6336732;22;20493;-82
2023/09/13 03:38:46;;;;;;;0.30;0.30;;;21.20;74.10;;;;;;6337544;22;20231;-83
2023/09/13 03:41:16;;;;;;;1.80;0.53;;;21.20;73.90;;;;;;6337080;22;20195;-82
2023/09/13 03:43:45;;;;;;;0.53;0.43;;;21.20;74.20;;;;;;6336946;22;20160;-83
2023/09/13 03:46:14;;;;;;;0.23;0.23;;;21.20;74.50;;;;;;6336607;22;20188;-83
2023/09/13 03:48:43;;;;;;;0.43;0.43;;;21.20;74.40;;;;;;6337145;22;20614;-82
2023/09/13 03:51:12;;;;;;;0.20;0.20;;;21.20;74.50;;;;;;6336868;22;20210;-84
2023/09/13 03:53:41;;;;;;;0.77;0.50;;;21.10;74.80;;;;;;6336524;22;20260;-83
2023/09/13 03:56:10;;;;;;;0.33;0.33;;;21.10;74.80;;;;;;6337373;22;20153;-83
2023/09/13 03:58:39;;;;;;;0.60;0.60;;;21.10;75.10;;;;;;6337438;22;20239;-83
2023/09/13 04:01:08;;;;;;;0.70;0.70;;;21.10;74.90;;;;;;6336615;22;20222;-83
2023/09/13 04:03:36;;;;;;;0.50;0.50;;;21.10;74.60;;;;;;6336762;22;20239;-83
2023/09/13 04:06:05;;;;;;;0.57;0.57;;;21.10;74.40;;;;;;6335991;22;20186;-84
2023/09/13 04:08:34;;;;;;;0.57;0.57;;;21.10;74.20;;;;;;6336538;22;20171;-83
2023/09/13 04:11:04;;;;;;;0.30;0.30;;;21.10;74.20;;;;;;6335149;22;20275;-84
2023/09/13 04:13:32;;;;;;;0.30;0.30;;;21.10;74.40;;;;;;6336928;22;20168;-84
2023/09/13 04:16:02;;;;;;;0.40;0.40;;;21.00;74.50;;;;;;6335405;22;20633;-83
2023/09/13 04:18:31;;;;;;;1.03;0.50;;;21.00;74.70;;;;;;6335247;22;20164;-83
2023/09/13 04:21:00;;;;;;;0.37;0.37;;;21.00;75.40;;;;;;6334783;22;20176;-87
2023/09/13 04:23:28;;;;;;;0.50;0.50;;;21.00;75.40;;;;;;6336080;22;20172;-86
2023/09/13 05:05:41;;;;;;;1.13;1.02;;;21.00;77.70;;;;;;6301914;22;20547;-84
2023/09/13 05:08:09;;;;;;;0.47;0.47;;;21.10;77.90;;;;;;6340270;22;20245;-84
2023/09/13 05:10:43;;;;;;;0.77;0.70;;;21.10;77.90;;;;;;6336269;22;20191;-84
2023/09/13 05:13:12;;;;;;;0.43;0.43;;;21.10;77.80;;;;;;6335826;22;20231;-85
2023/09/13 05:15:53;;;;;;;2.00;0.80;;;21.10;77.60;;;;;;6338583;22;20235;-86
2023/09/13 05:18:32;;;;;;;1.03;0.80;;;21.10;77.40;;;;;;6336346;22;20178;-87
2023/09/13 05:21:10;;;;;;;0.60;0.60;;;21.20;77.80;;;;;;6333575;22;20191;-86
2023/09/13 05:23:39;;;;;;;0.30;0.30;;;21.20;77.50;;;;;;6334243;22;20184;-86
2023/09/13 05:26:16;;;;;;;0.90;0.57;;;21.20;77.90;;;;;;6334733;22;20518;-85
2023/09/13 05:28:47;;;;;;;1.05;0.50;;;21.30;78.30;;;;;;6334396;22;20184;-87
2023/09/13 05:31:20;;;;;;;1.98;1.08;;;21.40;77.30;;;;;;6334204;22;20153;-91
2023/09/13 05:33:49;;;;;;;0.77;0.60;;;21.40;77.90;;;;;;6333767;22;20217;-86
2023/09/13 05:36:20;;;;;;;0.77;0.77;;;21.40;77.80;;;;;;6336526;22;20171;-87
2023/09/13 05:38:50;;;;;;;0.50;0.50;;;21.50;77.60;;;;;;6336652;22;20676;-86
2023/09/13 05:41:19;;;;;;;0.30;0.30;;;21.50;77.20;;;;;;6334647;22;20706;-85
2023/09/13 05:43:48;;;;;;;0.30;0.30;;;21.60;77.00;;;;;;6334516;22;21162;-85
2023/09/13 05:46:17;;;;;;;0.60;0.60;;;21.70;77.00;;;;;;6333000;22;20184;-85
2023/09/13 05:48:57;;;;;;;0.68;0.68;;;21.70;76.90;;;;;;6336039;22;20561;-87
2023/09/13 05:51:31;;;;;;;0.50;0.50;;;21.80;76.80;;;;;;6333281;22;20184;-84
2023/09/13 05:54:03;;;;;;;0.45;0.40;;;21.80;76.60;;;;;;6333953;22;20176;-86
2023/09/13 05:56:32;;;;;;;0.90;0.63;;;21.90;76.50;;;;;;6334528;22;20172;-85
2023/09/13 05:59:06;;;;;;;0.40;0.40;;;22.00;76.50;;;;;;6333320;22;20198;-88
2023/09/13 06:01:36;;;;;;;0.73;0.60;;;22.00;76.50;;;;;;6333447;22;20179;-86
2023/09/13 06:04:08;;;;;;;0.30;0.30;;;22.10;76.20;;;;;;6333167;22;20171;-84
2023/09/13 06:06:52;;;;;;;0.63;0.63;;;22.20;76.10;;;;;;6330222;22;20204;-85
2023/09/13 06:09:22;;;;;;;0.30;0.30;;;22.20;76.90;;;;;;6310155;22;20160;-86
2023/09/13 06:11:51;;;;;;;0.60;0.60;;;22.30;75.90;;;;;;6340031;22;20171;-88
2023/09/13 06:14:19;;;;;;;0.30;0.30;;;22.30;75.70;;;;;;6336753;22;20246;-88
2023/09/13 06:16:50;;;;;;;0.47;0.47;;;22.40;75.60;;;;;;6338209;22;20152;-85
2023/09/13 06:19:19;;;;;;;0.50;0.50;;;22.50;75.50;;;;;;6339254;22;20184;-86
2023/09/13 06:21:52;;;;;;;3.00;0.65;;;22.50;75.10;;;;;;6339080;22;20202;-87
2023/09/13 06:24:21;;;;;;;4.47;0.77;;;22.60;75.20;;;;;;6311641;22;20218;-86
2023/09/13 06:26:50;;;;;;;0.85;0.77;;;22.70;75.10;;;;;;6310700;22;20161;-87
2023/09/13 06:29:18;;;;;;;0.88;0.70;;;22.80;75.00;;;;;;6338158;22;20695;-86
2023/09/13 06:31:48;;;;;;;0.20;0.20;;;22.80;74.70;;;;;;6337964;22;20171;-85
2023/09/13 06:34:33;;;;;;;0.50;0.50;;;22.90;74.50;;;;;;6338837;22;20160;-87
2023/09/13 06:37:04;;;;;;;0.25;0.25;;;23.00;74.40;;;;;;6337705;22;20191;-88
2023/09/13 06:39:34;;;;;;;0.30;0.30;;;23.10;74.30;;;;;;6337972;22;20243;-87
2023/09/13 06:42:04;;;;;;;1.05;0.95;;;23.10;74.10;;;;;;6311110;22;20161;-87
2023/09/13 06:44:52;;;;;;;2.17;0.55;;;23.20;74.00;;;;;;6336693;22;20165;-84
2023/09/13 06:47:42;;;;;;;0.40;0.40;;;23.30;73.80;;;;;;6339204;22;20274;-86
2023/09/13 06:50:12;;;;;;;0.35;0.35;;;23.30;73.60;;;;;;6308408;22;20629;-85
2023/09/13 06:52:44;;;;;;;2.33;0.77;;;23.40;73.60;;;;;;6338658;22;20642;-84
2023/09/13 06:55:32;;;;;;;1.52;0.77;;;23.50;73.30;;;;;;6337422;22;20233;-83
2023/09/13 06:58:07;;;;;;;1.20;0.40;;;23.60;73.30;;;;;;6339752;22;20160;-86
2023/09/13 07:00:41;;;;;;;0.40;0.40;;;23.60;73.10;;;;;;6339543;22;20667;-83
2023/09/13 07:03:30;;;;;;;0.45;0.45;;;23.70;72.90;;;;;;6340762;22;20487;-84
2023/09/13 07:06:03;;;;;;;0.65;0.47;;;23.70;72.70;;;;;;6337438;22;20188;-86
2023/09/13 07:08:33;;;;;;;0.52;0.52;;;23.80;72.60;;;;;;6336776;22;20651;-85
2023/09/13 07:11:02;;;;;;;0.68;0.68;;;23.90;72.40;;;;;;6310769;22;20187;-83
2023/09/13 07:13:31;;;;;;;0.60;0.43;;;24.00;72.20;;;;;;6282254;22;20169;-85
2023/09/13 07:16:00;;;;;;;0.30;0.30;;;24.00;72.00;;;;;;6306871;22;20200;-86
2023/09/13 07:18:29;;;;;;;0.75;0.40;;;24.10;71.90;;;;;;6331507;22;20247;-84
2023/09/13 07:20:57;;;;;;;0.80;0.70;;;24.20;71.90;;;;;;6335111;22;20186;-83
2023/09/13 07:23:26;;;;;;;0.88;0.65;;;24.30;71.70;;;;;;6334750;22;20235;-84
2023/09/13 07:25:57;;;;;;;3.25;0.75;;;24.30;71.50;;;;;;6336384;22;20168;-85
2023/09/13 07:28:26;;;;;;;0.98;0.52;;;24.40;71.30;;;;;;6337547;22;20664;-85
2023/09/13 07:30:55;;;;;;;0.65;0.65;;;24.50;71.30;;;;;;6336064;22;20249;-85
2023/09/13 07:33:24;;;;;;;2.65;1.15;;;24.50;71.20;;;;;;6310955;22;20168;-86
2023/09/13 07:35:53;;;;;;;2.00;0.52;;;24.60;71.00;;;;;;6335975;22;20659;-85
2023/09/13 07:38:22;;;;;;;0.55;0.55;;;24.60;70.80;;;;;;6337244;22;20598;-85
2023/09/13 07:40:50;;;;;;;0.70;0.70;;;24.70;70.70;;;;;;6336145;22;20195;-85
2023/09/13 07:43:20;;;;;;;1.50;0.98;;;24.80;70.50;;;;;;6334791;22;20497;-83
2023/09/13 07:45:48;;;;;;;1.35;0.60;;;24.80;71.10;;;;;;6336527;22;20186;-85
2023/09/13 07:48:17;;;;;;;1.05;0.95;;;24.90;70.10;;;;;;6337268;22;20199;-84
2023/09/13 07:50:46;;;;;;;1.52;1.00;;;24.90;70.00;;;;;;6335815;22;20229;-84
2023/09/13 07:53:14;;;;;;;0.70;0.70;;;25.00;70.00;;;;;;6336973;22;20172;-84
2023/09/13 07:55:43;;;;;;;0.68;0.65;;;25.00;69.80;;;;;;6333420;22;20175;-85
2023/09/13 07:58:14;;;;;;;0.82;0.73;;;25.10;69.50;;;;;;6335851;22;20175;-84
2023/09/13 08:00:45;;;;;;;0.85;0.55;;;25.20;69.30;;;;;;6335706;22;20160;-84
2023/09/13 08:03:14;;;;;;;2.97;0.60;;;25.20;69.20;;;;;;6336470;22;20226;-83
2023/09/13 08:05:46;;;;;;;0.47;0.47;;;25.30;69.10;;;;;;6335663;22;20169;-84
2023/09/13 08:08:18;;;;;;;0.30;0.30;;;25.40;69.10;;;;;;6335539;22;20567;-84
2023/09/13 08:10:46;;;;;;;0.40;0.40;;;25.40;68.80;;;;;;6336744;22;20179;-85
2023/09/13 08:13:15;;;;;;;1.52;0.88;;;25.50;68.60;;;;;;6334340;22;20518;-82
2023/09/13 08:15:46;;;;;;;1.85;1.05;;;25.50;68.50;;;;;;6336084;22;20640;-84
2023/09/13 08:18:17;;;;;;;0.30;0.30;;;25.60;68.40;;;;;;6336651;22;20347;-83
2023/09/13 08:20:46;;;;;;;0.40;0.40;;;25.60;68.10;;;;;;6309029;22;20203;-85
2023/09/13 08:23:15;;;;;;;2.25;1.33;;;25.70;68.20;;;;;;6337017;22;20164;-83
2023/09/13 08:25:45;;;;;;;1.20;1.10;;;25.80;68.00;;;;;;6333723;22;20164;-85
2023/09/13 08:28:14;;;;;;;3.72;0.52;;;25.80;67.70;;;;;;6333295;22;20174;-85
2023/09/13 08:30:42;;;;;;;2.35;1.20;;;25.90;67.60;;;;;;6334423;22;20240;-83
2023/09/13 08:33:16;;;;;;;0.47;0.47;;;26.00;67.60;;;;;;6334408;22;20160;-86
2023/09/13 08:35:46;;;;;;;0.20;0.20;;;26.10;67.10;;;;;;6334559;22;20156;-85
2023/09/13 08:38:24;;;;;;;1.48;0.60;;;26.10;66.90;;;;;;6334877;22;20644;-89
2023/09/13 08:40:54;;;;;;;0.60;0.60;;;26.20;66.70;;;;;;6337182;22;20247;-84
2023/09/13 08:43:24;;;;;;;0.38;0.38;;;26.30;66.70;;;;;;6336779;22;20164;-84
2023/09/13 08:45:54;;;;;;;0.47;0.47;;;26.30;66.80;;;;;;6330147;22;20169;-83
2023/09/13 08:48:25;;;;;;;0.30;0.30;;;26.40;66.70;;;;;;6336529;22;20156;-84
2023/09/13 08:50:54;;;;;;;0.60;0.40;;;26.50;66.80;;;;;;6334221;22;20180;-82
2023/09/13 08:53:25;;;;;;;0.28;0.28;;;26.60;66.80;;;;;;6336757;22;20235;-83
2023/09/13 08:55:56;;;;;;;0.35;0.35;;;26.60;66.70;;;;;;6335501;22;20149;-84
2023/09/13 08:58:26;;;;;;;0.57;0.57;;;26.70;66.70;;;;;;6333555;22;20187;-84
2023/09/13 09:00:57;;;;;;;0.73;0.73;;;26.80;66.70;;;;;;6334054;22;20175;-84
2023/09/13 09:03:29;;;;;;;0.43;0.30;;;26.90;66.30;;;;;;6335867;22;20542;-82
2023/09/13 09:05:59;;;;;;;0.55;0.47;;;27.00;66.10;;;;;;6332573;22;20232;-82
2023/09/13 09:08:28;;;;;;;0.30;0.30;;;27.00;65.50;;;;;;6333696;22;20723;-83
2023/09/13 09:10:59;;;;;;;0.30;0.30;;;27.10;65.50;;;;;;6334942;22;20161;-83
2023/09/13 09:13:31;;;;;;;0.75;0.57;;;27.20;65.00;;;;;;6336142;22;20211;-85
2023/09/13 09:16:02;;;;;;;0.80;0.40;;;27.20;64.70;;;;;;6335206;22;20171;-83
2023/09/13 09:18:35;;;;;;;0.40;0.40;;;27.30;64.70;;;;;;6335773;22;20156;-83
2023/09/13 09:21:05;;;;;;;0.60;0.40;;;27.40;64.20;;;;;;6330996;22;20195;-82
2023/09/13 09:23:37;;;;;;;0.63;0.63;;;27.40;63.90;;;;;;6335464;22;20632;-83
2023/09/13 09:26:06;;;;;;;1.05;0.70;;;27.50;63.50;;;;;;6334757;22;20153;-82
2023/09/13 09:28:35;;;;;;;0.28;0.28;;;27.60;63.40;;;;;;6334716;22;20171;-83
2023/09/13 09:31:05;;;;;;;0.20;0.20;;;27.60;63.30;;;;;;6334780;22;20195;-83
2023/09/13 09:33:38;;;;;;;1.20;0.50;;;27.70;63.40;;;;;;6335647;22;20243;-83
2023/09/13 09:36:09;;;;;;;0.30;0.30;;;27.80;63.40;;;;;;6334118;22;20684;-83
2023/09/13 09:38:38;;;;;;;2.05;0.40;;;27.90;63.20;;;;;;6332324;22;20156;-82
2023/09/13 09:41:07;;;;;;;0.40;0.40;;;27.90;62.80;;;;;;6332146;22;20251;-82
2023/09/13 09:43:36;;;;;;;0.45;0.45;;;28.00;61.80;;;;;;6335580;22;20168;-82
2023/09/13 09:46:05;;;;;;;0.52;0.52;;;28.00;61.10;;;;;;6333459;22;20168;-82
2023/09/13 09:48:34;;;;;;;0.52;0.52;;;28.10;60.50;;;;;;6332183;22;20617;-81
2023/09/13 09:51:03;;;;;;;1.65;1.23;;;28.20;60.30;;;;;;6331964;22;20200;-82
2023/09/13 09:53:35;;;;;;;0.60;0.50;;;28.30;60.10;;;;;;6335730;22;20179;-84
2023/09/13 09:56:04;;;;;;;1.10;0.50;;;28.30;59.50;;;;;;6347637;22;20168;-83
2023/09/13 09:58:34;;;;;;;1.25;0.70;;;28.40;58.90;;;;;;6359447;22;20256;-82
2023/09/13 10:01:03;;;;;;;0.40;0.40;;;28.50;59.20;;;;;;6355053;22;20680;-83
2023/09/13 10:03:35;;;;;;;0.40;0.40;;;28.60;59.90;;;;;;6352246;22;20206;-84
2023/09/13 10:06:10;;;;;;;1.08;0.98;;;28.60;58.90;;;;;;6358027;22;20208;-84
2023/09/13 10:08:42;;;;;;;1.45;1.10;;;28.70;58.50;;;;;;6358549;22;20199;-81
2023/09/13 10:11:17;;;;;;;0.32;0.32;;;28.80;57.10;;;;;;6341984;22;20176;-84
2023/09/13 10:13:46;;;;;;;0.60;0.60;;;28.80;56.70;;;;;;6336995;22;20170;-82
2023/09/13 10:16:16;;;;;;;0.70;0.65;;;28.90;57.10;;;;;;6335666;22;20171;-82
2023/09/13 10:18:50;;;;;;;2.33;1.17;;;29.00;57.30;;;;;;6339792;22;20205;-83
2023/09/13 10:21:24;;;;;;;0.30;0.30;;;29.10;56.60;;;;;;6337058;22;20178;-83
2023/09/13 10:23:59;;;;;;;1.75;0.50;;;29.10;55.60;;;;;;6336142;22;20478;-83
2023/09/13 10:26:31;;;;;;;0.68;0.68;;;29.20;54.60;;;;;;6333535;22;20163;-83
2023/09/13 10:29:05;;;;;;;0.50;0.50;;;29.30;54.70;;;;;;6334677;22;20188;-83
2023/09/13 10:31:40;;;;;;;0.85;0.70;;;29.40;55.30;;;;;;6332824;22;20168;-83
2023/09/13 10:34:19;;;;;;;0.35;0.35;;;29.40;55.40;;;;;;6335202;22;20239;-81
2023/09/13 10:36:53;;;;;;;0.95;0.75;;;29.50;56.00;;;;;;6336981;22;20159;-82
2023/09/13 10:39:30;;;;;;;0.50;0.43;;;29.60;55.10;;;;;;6332345;22;20199;-83
2023/09/13 10:42:04;;;;;;;1.25;0.50;;;29.60;54.10;;;;;;6334522;22;20291;-82
2023/09/13 10:44:36;;;;;;;0.57;0.57;;;29.70;53.50;;;;;;6334407;22;20549;-82
2023/09/13 10:47:05;;;;;;;0.35;0.35;;;29.80;52.60;;;;;;6334967;22;20184;-84
2023/09/13 10:49:38;;;;;;;1.45;0.43;;;29.80;52.00;;;;;;6332485;22;20164;-85
2023/09/13 10:52:11;;;;;;;1.92;0.65;;;29.90;51.30;;;;;;6335815;22;20152;-84
2023/09/13 10:54:42;;;;;;;0.40;0.40;;;30.00;51.30;;;;;;6336410;22;20169;-83
2023/09/13 10:57:12;;;;;;;0.40;0.40;;;30.00;51.50;;;;;;6337091;22;20168;-84
2023/09/13 10:59:41;;;;;;;0.43;0.43;;;30.10;51.70;;;;;;6337294;22;20175;-84
2023/09/13 11:02:10;;;;;;;0.55;0.55;;;30.10;50.70;;;;;;6333429;22;20175;-83
2023/09/13 11:04:40;;;;;;;1.30;0.90;;;30.20;52.10;;;;;;6333386;22;20267;-83
2023/09/13 11:07:09;;;;;;;0.88;0.88;;;30.40;51.80;;;;;;6333849;22;20199;-83
2023/09/13 11:09:39;;;;;;;0.30;0.30;;;30.40;51.80;;;;;;6335726;22;20231;-82
2023/09/13 11:12:12;;;;;;;1.00;0.90;;;30.50;51.60;;;;;;6335928;22;20180;-84
2023/09/13 11:14:46;;;;;;;0.65;0.65;;;30.60;51.50;;;;;;6334932;22;20164;-83
2023/09/13 11:17:37;;;;;;;0.32;0.30;;;30.60;51.30;;;;;;6337019;22;20180;-83
2023/09/13 11:20:27;;;;;;;0.45;0.45;;;30.60;50.60;;;;;;6335482;22;20238;-83
2023/09/13 11:23:08;;;;;;;3.28;1.45;;;30.70;49.50;;;;;;6336540;22;20244;-84
2023/09/13 11:26:02;;;;;;;0.30;0.30;;;30.80;50.00;;;;;;6335873;22;20160;-83
2023/09/13 11:28:44;;;;;;;1.27;0.68;;;30.80;50.10;;;;;;6336253;22;20160;-83
2023/09/13 11:31:21;;;;;;;1.08;0.52;;;30.90;49.70;;;;;;6334009;22;20223;-84
2023/09/13 11:33:56;;;;;;;0.28;0.28;;;30.90;50.00;;;;;;6336115;22;20454;-82
2023/09/13 11:36:27;;;;;;;0.45;0.38;;;31.00;48.80;;;;;;6336337;22;20156;-83
2023/09/13 11:39:01;;;;;;;0.45;0.45;;;31.00;48.90;;;;;;6338314;22;20156;-82
2023/09/13 11:41:39;;;;;;;0.90;0.80;;;31.10;49.20;;;;;;6335907;22;20505;-83
2023/09/13 11:44:11;;;;;;;0.77;0.60;;;31.20;49.20;;;;;;6346775;22;20160;-84
2023/09/13 11:46:42;;;;;;;0.40;0.40;;;31.20;48.90;;;;;;6337340;22;20159;-83
2023/09/13 11:49:11;;;;;;;0.50;0.50;;;31.20;47.70;;;;;;6336463;22;20172;-82
2023/09/13 11:52:02;;;;;;;2.15;1.45;;;31.20;47.50;;;;;;6336225;22;20192;-84
2023/09/13 11:54:56;;;;;;;1.45;0.50;;;31.40;48.10;;;;;;6334327;22;20172;-84
2023/09/13 11:57:50;;;;;;;1.30;0.85;;;31.30;47.00;;;;;;6335861;22;20804;-84
2023/09/13 12:00:26;;;;;;;0.50;0.50;;;31.40;47.00;;;;;;6335419;22;20161;-84
2023/09/13 12:02:56;;;;;;;0.30;0.30;;;31.40;47.20;;;;;;6335486;22;20167;-82
2023/09/13 12:05:30;;;;;;;0.98;0.80;;;31.50;47.60;;;;;;6335255;22;20617;-82
2023/09/13 12:08:25;;;;;;;0.20;0.20;;;31.40;45.70;;;;;;6334893;22;20268;-88
2023/09/13 12:10:58;;;;;;;0.68;0.50;;;31.50;45.60;;;;;;6331896;22;20184;-83
2023/09/13 12:13:42;;;;;;;2.95;0.57;;;31.50;45.80;;;;;;6336649;22;20235;-83
2023/09/13 12:16:43;;;;;;;1.48;0.95;;;31.70;46.20;;;;;;6333622;22;20164;-84
2023/09/13 12:19:18;;;;;;;3.80;0.60;;;31.70;46.20;;;;;;6334940;22;20161;-84
2023/09/13 12:21:47;;;;;;;3.42;0.98;;;31.70;46.00;;;;;;6336845;22;20180;-83
2023/09/13 12:24:22;;;;;;;1.30;0.82;;;31.80;45.90;;;;;;6307860;22;20168;-84
2023/09/13 12:26:52;;;;;;;0.45;0.30;;;31.90;46.20;;;;;;6331728;22;20152;-84
2023/09/13 12:29:22;;;;;;;0.65;0.65;;;31.90;46.20;;;;;;6334283;22;20232;-84
2023/09/13 12:31:57;;;;;;;3.75;1.80;;;32.00;46.60;;;;;;6333539;22;20200;-85
2023/09/13 12:34:27;;;;;;;1.25;0.73;;;32.00;46.50;;;;;;6336125;22;20167;-84
2023/09/13 12:36:56;;;;;;;1.52;0.93;;;32.00;46.00;;;;;;6334221;22;20160;-83
2023/09/13 12:39:26;;;;;;;0.73;0.57;;;32.00;45.80;;;;;;6333152;22;20175;-83
2023/09/13 12:41:56;;;;;;;0.70;0.70;;;32.10;46.00;;;;;;6335659;22;20172;-84
2023/09/13 12:44:25;;;;;;;0.50;0.50;;;32.00;45.70;;;;;;6335921;22;20171;-85
2023/09/13 12:47:00;;;;;;;0.30;0.30;;;32.10;45.70;;;;;;6332674;22;20164;-85
2023/09/13 12:49:29;;;;;;;0.65;0.65;;;32.10;45.70;;;;;;6336141;22;20167;-83
2023/09/13 12:51:57;;;;;;;2.03;0.93;;;32.10;46.10;;;;;;6335612;22;20195;-84
2023/09/13 12:54:28;;;;;;;3.08;1.13;;;32.10;45.00;;;;;;6333987;22;20164;-84
2023/09/13 12:57:02;;;;;;;0.60;0.60;;;32.20;45.60;;;;;;6334719;22;20168;-84
2023/09/13 12:59:52;;;;;;;2.28;0.73;;;32.20;45.90;;;;;;6302429;22;20193;-83
2023/09/13 13:02:21;;;;;;;0.57;0.57;;;32.20;45.80;;;;;;6265826;22;20234;-85
2023/09/13 13:04:49;;;;;;;0.20;0.20;;;32.30;46.10;;;;;;6272263;22;20216;-86
2023/09/13 13:07:22;;;;;;;0.28;0.28;;;32.30;46.10;;;;;;6271839;22;20220;-85
2023/09/13 13:10:03;;;;;;;2.17;0.93;;;32.30;46.10;;;;;;6273738;22;20237;-86
2023/09/13 13:12:33;;;;;;;0.68;0.65;;;32.40;45.80;;;;;;6274446;22;20231;-85
2023/09/13 13:15:02;;;;;;;1.88;0.47;;;32.40;45.20;;;;;;6275358;22;20166;-86
2023/09/13 13:17:34;;;;;;;1.15;1.05;;;32.40;44.40;;;;;;6274243;22;20197;-85
2023/09/13 13:20:06;;;;;;;0.68;0.60;;;32.50;44.80;;;;;;6273903;22;20177;-85
2023/09/13 13:22:54;;;;;;;1.55;1.23;;;32.50;45.10;;;;;;6274091;22;20165;-84
2023/09/13 13:25:24;;;;;;;0.40;0.40;;;32.50;45.10;;;;;;6273426;22;20170;-85
2023/09/13 13:27:52;;;;;;;3.70;1.70;;;32.50;45.20;;;;;;6275616;22;20169;-85
2023/09/13 13:30:21;;;;;;;2.03;0.90;;;32.50;43.90;;;;;;6273655;22;20177;-84
2023/09/13 13:32:51;;;;;;;1.38;0.88;;;32.50;44.20;;;;;;6274877;22;20276;-86
2023/09/13 13:35:20;;;;;;;0.40;0.38;;;32.60;44.40;;;;;;6273542;22;20248;-85
2023/09/13 13:37:48;;;;;;;0.77;0.68;;;32.60;43.70;;;;;;6274074;22;20563;-85
2023/09/13 13:40:19;;;;;;;0.95;0.50;;;32.50;43.20;;;;;;6274121;22;20634;-85
2023/09/13 13:42:49;;;;;;;0.50;0.50;;;32.60;43.70;;;;;;6275678;22;20188;-84
2023/09/13 13:45:18;;;;;;;0.40;0.40;;;32.80;43.90;;;;;;6273096;22;20220;-84
2023/09/13 13:47:47;;;;;;;1.45;0.68;;;32.90;44.90;;;;;;6274719;22;20223;-86
2023/09/13 13:50:16;;;;;;;1.30;0.63;;;33.20;43.40;;;;;;6274961;22;20168;-85